Logo AVAMET
Benvolgut visitant, si us plau, ingressa Recuperar contrasenya

Inforatge Albuixec

Dades diàries. Acumulats / Últims 30 dies disponibles

Data Temperatura (°C) Humitat rel. (%) Pressió rel. (hPa) Vent (km/h) Precipitació
Mínima Mitjana Màxima Amplitud
tèrmica
Mínima Mitjana Màxima Mínima Mitjana Màxima Predom. Mitjana Ràfega
màxima
Total
(mm)
Índex-n
Mínima Mitjana Màxima Mínima Mitjana Màxima n
0 a 1
P0 max
mm 5'
Dades mensuals acumulades fins l'últim dia disponible
11/2019 8,7 14,0 20,7 17,9 17,3 22,2 28,9 20,2 25 50 85 1.002 1.013 1.022   14,1 66,0 0,0
Dades anuals acumulades fins l'últim dia disponible
2019 0,7 14,3 25,8 18,5 10,8 22,6 41,6 40,9 14 69 96 994 1.019 1.038   8,6 82,0 200,7
Últims 30 dies disponibles
11-11-2019 8,7     14,2     19,3 10,6 35 48 59 1.012 1.015 1.017 WNW 7,9 35,4 0,0
10-11-2019 10,6     13,9     17,3 6,7 35 47 69 1.012 1.014 1.016 WNW 16,1 56,3 0,0
09-11-2019 12,3     15,5     19,9 7,6 32 44 58 1.015 1.018 1.021 WSW 14,8 46,7 0,0
08-11-2019 10,7     14,1     17,9 7,2 32 44 56 1.011 1.014 1.018 WSW 15,1 49,9 0,0
07-11-2019 12,1     16,6     22,3 10,2 25 51 67 1.009 1.011 1.015 WSW 13,5 45,1 0,0
06-11-2019 10,8     16,1     22,0 11,2 32 50 66 1.013 1.014 1.016 WSW 5,1 29,0 0,0
05-11-2019 14,7     18,1     20,7 6,0 36 48 63 1.007 1.010 1.014 WSW 19,0 57,9 0,0
04-11-2019 17,3     20,8     24,3 7,0 42 52 68 1.007 1.010 1.012 WSW 19,8 66,0 0,0
03-11-2019 19,5     21,5     24,9 5,4 26 48 66 1.002 1.006 1.012 SW 19,5 62,8 0,0
02-11-2019 20,7     23,2     26,9 6,2 42 58 70 1.006 1.010 1.015 WSW 15,4 49,9 0,0
01-11-2019 16,5     22,7     28,9 12,4 43 63 85 1.015 1.018 1.022 WSW 8,5 40,2 0,0
31-10-2019 17,9     21,5     27,6 9,7 42 68 86 1.020 1.022 1.023 SO 5,2 22,5 0,0
30-10-2019 14,6     18,9     23,4 8,8 58 78 91 1.021 1.022 1.023 WSW 3,9 17,7 0,0
29-10-2019 13,4     17,7     21,9 8,5 71 86 92 1.017 1.019 1.021 WNW 3,9 17,7 0,0
28-10-2019 13,6     17,1     20,7 7,1 75 85 92 1.018 1.020 1.022 W 3,1 12,9 0,0
27-10-2019 13,5     17,4     21,2 7,7 69 83 91 1.022 1.023 1.025 WNW 5,0 22,5 0,0
26-10-2019 11,3     17,1     21,9 10,6 66 79 87 1.022 1.023 1.025 W 4,3 19,3 0,0
25-10-2019 12,7     17,4     22,8 10,1 48 67 82 1.022 1.024 1.025 WSW 6,0 20,9 0,0
24-10-2019 10,7     16,2     22,9 12,2 41 63 80 1.013 1.017 1.023 W 7,1 22,5 0,0
23-10-2019 11,6     14,7     19,4 7,8 47 68 85 1.006 1.009 1.013 SW 11,4 38,6 0,0
22-10-2019 12,9     14,2     17,3 4,4 63 84 92 1.007 1.013 1.020 N 8,0 30,6 16,2 0,27 0,60
21-10-2019 10,8     15,5     20,1 9,3 46 68 78 1.017 1.019 1.021 WSW 6,1 22,5 0,0
20-10-2019 14,9     17,9     20,1 5,2 51 69 81 1.007 1.011 1.017 WSW 8,7 41,8 2,4 0,24 0,40
19-10-2019 18,4     21,8     27,5 9,1 42 67 80 1.008 1.011 1.015 WSW 9,0 38,6 0,0
18-10-2019 17,3     22,2     28,0 10,7 44 60 72 1.014 1.017 1.019 WSW 10,1 41,8 0,0
17-10-2019 12,7     19,9     28,2 15,5 26 54 70 1.016 1.018 1.019 WSW 6,9 37,0 0,0
16-10-2019 12,9     18,9     25,8 12,9 29 48 62 1.017 1.020 1.023 WSW 7,7 30,6 0,0
15-10-2019 14,5     19,1     23,5 9,0 28 47 64 1.016 1.019 1.022 WSW 11,3 38,6 0,0
14-10-2019 18,2     21,3     23,6 5,4 55 84 91 1.013 1.016 1.019 WNW 5,8 32,2 0,4
13-10-2019 18,2     21,9     24,9 6,7 74 84 91 1.018 1.019 1.020 WNW 5,8 22,5 0,0
Últims 13 mesos disponibles
10/2019 10,7 15,6 20,6 19,7 17,3 24,1 28,2 17,5 47 72 86 1.009 1.018 1.024 WSW 6,6 41,8 19,2
09/2019 15,4 19,8 22,9 23,4 21,1 26,7 34,4 19,0 48 75 84 1.012 1.019 1.027 SSE 8,5 69,3 83,6
08/2019 17,9 22,0 25,8 25,7 26,6 29,1 41,6 23,7 47 74 84 1.012 1.018 1.022 SSE 8,1 59,6 4,1
07/2019 20,2 22,0 24,2 25,9 27,1 29,2 35,9 15,7 54 72 83 1.007 1.016 1.023 SSE 8,4 55,6 15,2
06/2019 11,8 17,7 22,0 21,8 20,5 25,1 31,2 19,4 49 70 84 1.010 1.017 1.024 SSE 8,8 61,1 0,0
05/2019 8,3 14,1 19,5 17,9 17,6 21,5 32,7 24,4 48 71 86 1.007 1.017 1.026 S 8,8 55,6 21,0
04/2019 8,3 11,2 14,4 14,9 15,4 19,0 26,4 18,1 49 69 93 1.001 1.015 1.027 SSO 11,4 82,0 44,2
03/2019 5,4 8,5 15,1 13,8 13,1 18,4 29,1 23,7 44 64 84 1.013 1.025 1.031 S 8,1 69,3 12,8
02/2019 2,2 6,0 11,1 11,2 13,4 16,6 23,4 21,2 34 68 82 996 1.027 1.036 SSO 7,8 72,4 0,0
01/2019 0,7 5,2 12,4 10,4 10,8 16,2 20,6 19,9 44 62 80 1.003 1.021 1.032 OSO 7,4 66,7 0,6
12/2018 3,6 7,9 11,9 12,3 14,1 17,7 23,4 19,8 52 72 88 1.010 1.027 1.032 OSO 6,2 53,7 10,2
11/2018 5,6 10,8 16,3 14,3 14,9 18,4 23,7 18,1 56 74 93 1.003 1.017 1.026 OSO 8,5 61,1 99,6
10/2018 6,7 14,5 18,0 18,3 14,3 22,1 25,7 19,0 46 74 91 1.002 1.016 1.027 SO 7,2 56,3 164,8
Tots els anys disponibles
2018 1,6 14,1 25,2 18,0 9,1 21,9 36,2 34,6 38 70 93 995 1.018 1.037 OSO 8,4 83,3 530,8
Temperatura (°C)
Humitat relativa (%)
Velocitat del vent i ràfega màxima (km/h)
Direcció del vent (°)
Pressió (hPa)
Precipitació (mm)
Nota sobre les dades: s'avisa a l'usuari de la provisionalitat i no oficialitat d'aquestes dades
Logo AVAMET blanc
Web allotjada a Sollutia
Llicència de Creative CommonsLa web d'AVAMET i els seus continguts estan subjectes a una llicència de
Reconeixement - No Comercial - Compartir igual
Últimes estacions: Xàbia - Alt de la Granadella (Soci), Villena - Sierra de Salinas (Soci), Sueca - Centre (Inforatge), Xàbia - La Plana (Soci), Banyeres de Mariola - Molí Sol (Soci), Villena - Villa Ventín (Soci), Benissa - Convent (Soci), - - -